sensor_id;sensor_type;location;lat;lon;timestamp;pressure;altitude;pressure_sealevel;temperature;humidity
68226;BME280;55045;49.410;11.030;2022-10-17T00:01:38;98756.47;;;12.68;34.42
68226;BME280;55045;49.410;11.030;2022-10-17T00:04:41;98748.34;;;12.74;33.39
68226;BME280;55045;49.410;11.030;2022-10-17T00:07:46;98754.78;;;12.67;33.76
68226;BME280;55045;49.410;11.030;2022-10-17T00:10:57;98760.88;;;12.66;35.01
68226;BME280;55045;49.410;11.030;2022-10-17T00:14:01;98758.91;;;12.71;34.55
68226;BME280;55045;49.410;11.030;2022-10-17T00:17:04;98767.91;;;12.64;34.43
68226;BME280;55045;49.410;11.030;2022-10-17T00:20:09;98754.84;;;12.47;35.10
68226;BME280;55045;49.410;11.030;2022-10-17T00:23:13;98715.72;;;12.10;34.41
68226;BME280;55045;49.410;11.030;2022-10-17T00:26:17;98760.03;;;12.28;34.55
68226;BME280;55045;49.410;11.030;2022-10-17T00:29:20;98760.25;;;12.61;32.74
68226;BME280;55045;49.410;11.030;2022-10-17T00:32:23;98763.19;;;12.53;34.13
68226;BME280;55045;49.410;11.030;2022-10-17T00:35:26;98766.44;;;12.39;37.22
68226;BME280;55045;49.410;11.030;2022-10-17T00:38:31;98766.00;;;12.30;37.52
68226;BME280;55045;49.410;11.030;2022-10-17T00:41:34;98766.94;;;12.29;52.14
68226;BME280;55045;49.410;11.030;2022-10-17T00:45:00;98767.91;;;12.26;54.93
68226;BME280;55045;49.410;11.030;2022-10-17T00:48:06;98761.66;;;12.30;57.16
68226;BME280;55045;49.410;11.030;2022-10-17T00:51:11;98763.16;;;12.16;57.44
68226;BME280;55045;49.410;11.030;2022-10-17T00:54:18;98758.66;;;12.00;57.92
68226;BME280;55045;49.410;11.030;2022-10-17T00:57:24;98684.00;;;11.43;58.20
68226;BME280;55045;49.410;11.030;2022-10-17T01:00:28;98755.78;;;11.66;63.85
68226;BME280;55045;49.410;11.030;2022-10-17T01:03:32;98763.00;;;11.59;64.26
68226;BME280;55045;49.410;11.030;2022-10-17T01:06:35;98761.94;;;11.63;67.66
68226;BME280;55045;49.410;11.030;2022-10-17T01:09:42;98758.19;;;11.70;68.73
68226;BME280;55045;49.410;11.030;2022-10-17T01:12:58;98770.91;;;11.56;67.80
68226;BME280;55045;49.410;11.030;2022-10-17T01:16:08;98773.81;;;11.48;68.56
68226;BME280;55045;49.410;11.030;2022-10-17T01:19:48;98766.56;;;11.36;67.41
68226;BME280;55045;49.410;11.030;2022-10-17T01:23:13;98757.44;;;11.26;67.30
68226;BME280;55045;49.410;11.030;2022-10-17T01:26:26;98761.72;;;11.27;67.92
68226;BME280;55045;49.410;11.030;2022-10-17T01:29:48;98765.16;;;11.28;68.12
68226;BME280;55045;49.410;11.030;2022-10-17T01:33:02;98769.94;;;11.16;68.31
68226;BME280;55045;49.410;11.030;2022-10-17T01:36:11;98751.13;;;10.89;68.14
68226;BME280;55045;49.410;11.030;2022-10-17T01:39:23;98773.41;;;10.95;67.96
68226;BME280;55045;49.410;11.030;2022-10-17T01:42:38;98771.09;;;10.87;67.95
68226;BME280;55045;49.410;11.030;2022-10-17T01:45:47;98767.59;;;10.88;67.42
68226;BME280;55045;49.410;11.030;2022-10-17T01:48:54;98727.22;;;10.59;66.78
68226;BME280;55045;49.410;11.030;2022-10-17T01:52:00;98760.88;;;10.83;66.35
68226;BME280;55045;49.410;11.030;2022-10-17T01:55:08;98761.81;;;11.04;67.38
68226;BME280;55045;49.410;11.030;2022-10-17T01:58:15;98716.41;;;10.48;65.90
68226;BME280;55045;49.410;11.030;2022-10-17T02:01:21;98753.47;;;10.74;66.29
68226;BME280;55045;49.410;11.030;2022-10-17T02:04:28;98758.97;;;10.88;67.02
68226;BME280;55045;49.410;11.030;2022-10-17T02:07:31;98759.38;;;10.77;66.45
68226;BME280;55045;49.410;11.030;2022-10-17T02:10:38;98732.59;;;10.55;65.58
68226;BME280;55045;49.410;11.030;2022-10-17T02:14:13;98728.59;;;10.46;65.80
68226;BME280;55045;49.410;11.030;2022-10-17T02:17:29;98752.25;;;10.60;66.21
68226;BME280;55045;49.410;11.030;2022-10-17T02:20:44;98740.66;;;10.47;65.87
68226;BME280;55045;49.410;11.030;2022-10-17T02:23:53;98760.34;;;10.75;65.88
68226;BME280;55045;49.410;11.030;2022-10-17T02:27:03;98754.97;;;10.57;64.14
68226;BME280;55045;49.410;11.030;2022-10-17T02:30:12;98759.69;;;10.91;66.56
68226;BME280;55045;49.410;11.030;2022-10-17T02:33:20;98758.69;;;10.95;65.84
68226;BME280;55045;49.410;11.030;2022-10-17T02:36:30;98765.53;;;10.75;64.18
68226;BME280;55045;49.410;11.030;2022-10-17T02:39:35;98755.88;;;10.56;64.21
68226;BME280;55045;49.410;11.030;2022-10-17T02:42:42;98756.25;;;10.91;67.56
68226;BME280;55045;49.410;11.030;2022-10-17T02:45:47;98754.06;;;11.02;67.39
68226;BME280;55045;49.410;11.030;2022-10-17T02:48:52;98754.00;;;10.60;65.15
68226;BME280;55045;49.410;11.030;2022-10-17T02:52:01;98753.91;;;10.85;65.60
68226;BME280;55045;49.410;11.030;2022-10-17T02:55:09;98734.63;;;10.68;64.05
68226;BME280;55045;49.410;11.030;2022-10-17T02:58:17;98758.84;;;10.91;65.80
68226;BME280;55045;49.410;11.030;2022-10-17T03:01:22;98763.59;;;10.58;65.62
68226;BME280;55045;49.410;11.030;2022-10-17T03:04:26;98765.53;;;10.75;67.25
68226;BME280;55045;49.410;11.030;2022-10-17T03:07:31;98747.47;;;10.72;67.63
68226;BME280;55045;49.410;11.030;2022-10-17T03:10:34;98774.03;;;10.56;68.42
68226;BME280;55045;49.410;11.030;2022-10-17T03:13:38;98770.47;;;10.81;69.28
68226;BME280;55045;49.410;11.030;2022-10-17T03:16:41;98763.19;;;10.90;69.15
68226;BME280;55045;49.410;11.030;2022-10-17T03:19:44;98771.88;;;11.11;69.11
68226;BME280;55045;49.410;11.030;2022-10-17T03:22:50;98776.34;;;10.86;64.34
68226;BME280;55045;49.410;11.030;2022-10-17T03:25:53;98777.16;;;10.41;58.88
68226;BME280;55045;49.410;11.030;2022-10-17T03:28:56;98788.97;;;10.26;62.86
68226;BME280;55045;49.410;11.030;2022-10-17T03:34:26;98785.31;;;10.55;68.64
68226;BME280;55045;49.410;11.030;2022-10-17T03:37:29;98797.75;;;10.69;71.62
68226;BME280;55045;49.410;11.030;2022-10-17T03:40:33;98799.97;;;10.56;71.66
68226;BME280;55045;49.410;11.030;2022-10-17T03:43:38;98794.66;;;10.11;70.39
68226;BME280;55045;49.410;11.030;2022-10-17T03:46:42;98795.31;;;10.41;70.83
68226;BME280;55045;49.410;11.030;2022-10-17T03:49:47;98806.06;;;10.55;68.73
68226;BME280;55045;49.410;11.030;2022-10-17T03:52:50;98802.78;;;10.50;68.18
68226;BME280;55045;49.410;11.030;2022-10-17T03:55:54;98791.88;;;10.41;68.16
68226;BME280;55045;49.410;11.030;2022-10-17T03:58:57;98812.63;;;10.41;67.77
68226;BME280;55045;49.410;11.030;2022-10-17T04:02:02;98811.44;;;10.26;69.30
68226;BME280;55045;49.410;11.030;2022-10-17T04:05:08;98807.19;;;10.25;68.91
68226;BME280;55045;49.410;11.030;2022-10-17T04:08:11;98815.47;;;10.34;69.33
68226;BME280;55045;49.410;11.030;2022-10-17T04:11:36;98815.75;;;10.50;69.75
68226;BME280;55045;49.410;11.030;2022-10-17T04:14:40;98819.72;;;10.10;66.87
68226;BME280;55045;49.410;11.030;2022-10-17T04:17:43;98816.63;;;10.26;68.04
68226;BME280;55045;49.410;11.030;2022-10-17T04:20:50;98825.81;;;10.09;68.00
68226;BME280;55045;49.410;11.030;2022-10-17T04:23:55;98799.75;;;9.89;68.22
68226;BME280;55045;49.410;11.030;2022-10-17T04:27:16;98803.63;;;10.02;67.99
68226;BME280;55045;49.410;11.030;2022-10-17T04:30:22;98816.16;;;10.15;69.09
68226;BME280;55045;49.410;11.030;2022-10-17T04:33:27;98827.34;;;10.15;70.20
68226;BME280;55045;49.410;11.030;2022-10-17T04:36:32;98830.63;;;10.45;72.00
68226;BME280;55045;49.410;11.030;2022-10-17T04:39:36;98831.47;;;10.21;70.75
68226;BME280;55045;49.410;11.030;2022-10-17T04:42:39;98818.16;;;10.06;69.10
68226;BME280;55045;49.410;11.030;2022-10-17T04:45:44;98834.44;;;10.10;69.44
68226;BME280;55045;49.410;11.030;2022-10-17T04:48:48;98833.75;;;10.30;71.24
68226;BME280;55045;49.410;11.030;2022-10-17T04:51:53;98837.38;;;10.26;71.15
68226;BME280;55045;49.410;11.030;2022-10-17T04:55:11;98827.19;;;10.20;72.07
68226;BME280;55045;49.410;11.030;2022-10-17T04:58:14;98836.25;;;9.83;70.54
68226;BME280;55045;49.410;11.030;2022-10-17T05:01:19;98828.06;;;9.69;70.04
68226;BME280;55045;49.410;11.030;2022-10-17T05:04:26;98827.09;;;9.73;71.01
68226;BME280;55045;49.410;11.030;2022-10-17T05:07:31;98826.50;;;9.65;71.54
68226;BME280;55045;49.410;11.030;2022-10-17T05:10:43;98834.44;;;9.59;71.54
68226;BME280;55045;49.410;11.030;2022-10-17T05:13:52;98834.94;;;9.70;81.14
68226;BME280;55045;49.410;11.030;2022-10-17T05:16:56;98828.78;;;9.74;82.49
68226;BME280;55045;49.410;11.030;2022-10-17T05:20:00;98836.69;;;9.69;81.45
68226;BME280;55045;49.410;11.030;2022-10-17T05:23:06;98836.97;;;9.62;81.68
68226;BME280;55045;49.410;11.030;2022-10-17T05:26:14;98843.72;;;9.66;81.77
68226;BME280;55045;49.410;11.030;2022-10-17T05:29:17;98842.03;;;9.65;81.49
68226;BME280;55045;49.410;11.030;2022-10-17T05:32:26;98845.53;;;9.64;81.89
68226;BME280;55045;49.410;11.030;2022-10-17T05:35:30;98846.91;;;9.74;81.90
68226;BME280;55045;49.410;11.030;2022-10-17T05:38:35;98850.22;;;10.04;82.23
68226;BME280;55045;49.410;11.030;2022-10-17T05:41:38;98850.59;;;9.93;82.36
68226;BME280;55045;49.410;11.030;2022-10-17T05:44:44;98848.22;;;10.12;82.29
68226;BME280;55045;49.410;11.030;2022-10-17T05:47:49;98848.34;;;9.56;81.77
68226;BME280;55045;49.410;11.030;2022-10-17T05:50:57;98849.59;;;9.44;80.69
68226;BME280;55045;49.410;11.030;2022-10-17T05:54:04;98859.09;;;9.70;81.06
68226;BME280;55045;49.410;11.030;2022-10-17T05:57:09;98861.50;;;9.76;81.09
68226;BME280;55045;49.410;11.030;2022-10-17T06:00:13;98864.69;;;10.09;82.39
68226;BME280;55045;49.410;11.030;2022-10-17T06:03:18;98851.00;;;10.06;82.47
68226;BME280;55045;49.410;11.030;2022-10-17T06:06:22;98872.22;;;10.17;82.33
68226;BME280;55045;49.410;11.030;2022-10-17T06:09:27;98871.25;;;10.20;82.42
68226;BME280;55045;49.410;11.030;2022-10-17T06:12:30;98880.78;;;10.19;81.86
68226;BME280;55045;49.410;11.030;2022-10-17T06:15:34;98883.94;;;10.29;81.63
68226;BME280;55045;49.410;11.030;2022-10-17T06:18:41;98873.63;;;10.27;81.67
68226;BME280;55045;49.410;11.030;2022-10-17T06:21:45;98893.91;;;10.15;81.50
68226;BME280;55045;49.410;11.030;2022-10-17T06:24:54;98892.41;;;10.07;81.08
68226;BME280;55045;49.410;11.030;2022-10-17T06:28:00;98897.28;;;10.17;80.60
68226;BME280;55045;49.410;11.030;2022-10-17T06:31:04;98876.84;;;10.07;80.39
68226;BME280;55045;49.410;11.030;2022-10-17T06:34:08;98905.09;;;10.42;80.58
68226;BME280;55045;49.410;11.030;2022-10-17T06:37:13;98899.31;;;10.58;80.70
68226;BME280;55045;49.410;11.030;2022-10-17T06:40:18;98899.94;;;10.65;80.97
68226;BME280;55045;49.410;11.030;2022-10-17T06:43:23;98912.41;;;10.79;81.45
68226;BME280;55045;49.410;11.030;2022-10-17T06:46:48;98922.56;;;10.85;81.80
68226;BME280;55045;49.410;11.030;2022-10-17T06:49:52;98923.31;;;10.88;81.74
68226;BME280;55045;49.410;11.030;2022-10-17T06:53:18;98923.13;;;10.93;81.98
68226;BME280;55045;49.410;11.030;2022-10-17T06:56:47;98932.16;;;11.06;82.49
68226;BME280;55045;49.410;11.030;2022-10-17T06:59:56;98930.34;;;11.08;82.87
68226;BME280;55045;49.410;11.030;2022-10-17T07:03:06;98927.53;;;11.14;82.68
68226;BME280;55045;49.410;11.030;2022-10-17T07:06:09;98941.81;;;11.26;82.50
68226;BME280;55045;49.410;11.030;2022-10-17T07:09:14;98933.69;;;11.34;80.74
68226;BME280;55045;49.410;11.030;2022-10-17T07:12:19;98942.91;;;11.42;77.86
68226;BME280;55045;49.410;11.030;2022-10-17T07:15:24;98943.22;;;11.35;74.16
68226;BME280;55045;49.410;11.030;2022-10-17T07:18:28;98951.03;;;11.78;71.04
68226;BME280;55045;49.410;11.030;2022-10-17T07:21:31;98944.56;;;11.67;64.90
68226;BME280;55045;49.410;11.030;2022-10-17T07:24:40;98944.38;;;11.93;55.53
68226;BME280;55045;49.410;11.030;2022-10-17T07:28:03;98942.28;;;12.44;45.52
68226;BME280;55045;49.410;11.030;2022-10-17T07:31:11;98926.31;;;13.11;65.67
68226;BME280;55045;49.410;11.030;2022-10-17T07:34:15;98914.16;;;13.30;97.79
68226;BME280;55045;49.410;11.030;2022-10-17T07:37:19;98899.28;;;13.68;100.00
68226;BME280;55045;49.410;11.030;2022-10-17T07:40:27;98894.44;;;13.24;100.00
68226;BME280;55045;49.410;11.030;2022-10-17T07:43:33;98907.22;;;13.84;100.00
68226;BME280;55045;49.410;11.030;2022-10-17T07:46:37;98904.34;;;13.90;100.00
68226;BME280;55045;49.410;11.030;2022-10-17T07:49:40;98888.25;;;13.63;100.00
68226;BME280;55045;49.410;11.030;2022-10-17T07:52:45;98908.78;;;14.05;100.00
68226;BME280;55045;49.410;11.030;2022-10-17T07:55:48;98905.84;;;14.29;100.00
68226;BME280;55045;49.410;11.030;2022-10-17T07:58:54;98902.63;;;14.41;100.00
68226;BME280;55045;49.410;11.030;2022-10-17T08:02:03;98906.78;;;14.45;100.00
68226;BME280;55045;49.410;11.030;2022-10-17T08:05:08;98913.22;;;14.38;100.00
68226;BME280;55045;49.410;11.030;2022-10-17T08:08:12;98915.19;;;14.67;100.00
68226;BME280;55045;49.410;11.030;2022-10-17T08:11:15;98914.94;;;15.05;100.00
68226;BME280;55045;49.410;11.030;2022-10-17T08:14:19;98905.66;;;14.99;100.00
68226;BME280;55045;49.410;11.030;2022-10-17T08:17:22;98903.81;;;15.02;100.00
68226;BME280;55045;49.410;11.030;2022-10-17T08:20:27;98908.41;;;15.61;100.00
68226;BME280;55045;49.410;11.030;2022-10-17T08:23:30;98890.91;;;16.37;100.00
68226;BME280;55045;49.410;11.030;2022-10-17T08:26:34;98884.75;;;16.08;100.00
68226;BME280;55045;49.410;11.030;2022-10-17T08:29:45;98902.88;;;15.81;100.00
68226;BME280;55045;49.410;11.030;2022-10-17T08:32:49;98893.56;;;16.22;100.00
68226;BME280;55045;49.410;11.030;2022-10-17T08:35:52;98888.63;;;16.31;100.00
68226;BME280;55045;49.410;11.030;2022-10-17T08:38:56;98888.63;;;16.31;100.00
68226;BME280;55045;49.410;11.030;2022-10-17T08:42:12;98888.72;;;16.30;100.00
68226;BME280;55045;49.410;11.030;2022-10-17T08:45:29;98887.69;;;16.18;100.00
68226;BME280;55045;49.410;11.030;2022-10-17T08:48:38;98891.78;;;16.22;100.00
68226;BME280;55045;49.410;11.030;2022-10-17T08:51:51;98899.44;;;16.11;100.00
68226;BME280;55045;49.410;11.030;2022-10-17T08:54:57;98894.28;;;16.54;100.00
68226;BME280;55045;49.410;11.030;2022-10-17T08:58:00;98888.31;;;16.66;100.00
68226;BME280;55045;49.410;11.030;2022-10-17T09:01:13;98858.94;;;16.61;100.00
68226;BME280;55045;49.410;11.030;2022-10-17T09:04:53;98877.47;;;17.01;100.00
68226;BME280;55045;49.410;11.030;2022-10-17T09:08:11;98870.50;;;17.14;100.00
68226;BME280;55045;49.410;11.030;2022-10-17T09:11:32;98827.47;;;17.04;100.00
68226;BME280;55045;49.410;11.030;2022-10-17T09:18:23;98875.97;;;17.65;100.00
68226;BME280;55045;49.410;11.030;2022-10-17T09:21:35;98871.75;;;17.49;100.00
68226;BME280;55045;49.410;11.030;2022-10-17T09:24:44;98856.25;;;17.86;100.00
68226;BME280;55045;49.410;11.030;2022-10-17T09:27:51;98867.69;;;17.85;100.00
68226;BME280;55045;49.410;11.030;2022-10-17T09:34:29;98864.72;;;18.42;100.00
68226;BME280;55045;49.410;11.030;2022-10-17T09:37:33;98873.19;;;18.07;100.00
68226;BME280;55045;49.410;11.030;2022-10-17T09:40:36;98875.53;;;18.12;100.00
68226;BME280;55045;49.410;11.030;2022-10-17T09:43:39;98859.06;;;18.61;100.00
68226;BME280;55045;49.410;11.030;2022-10-17T09:46:51;98859.97;;;18.09;100.00
68226;BME280;55045;49.410;11.030;2022-10-17T09:50:00;98859.78;;;18.50;100.00
68226;BME280;55045;49.410;11.030;2022-10-17T09:53:11;98865.41;;;18.06;100.00
68226;BME280;55045;49.410;11.030;2022-10-17T09:56:17;98856.41;;;18.86;100.00
68226;BME280;55045;49.410;11.030;2022-10-17T09:59:30;98856.63;;;18.83;100.00
68226;BME280;55045;49.410;11.030;2022-10-17T10:02:34;98839.72;;;18.75;100.00
68226;BME280;55045;49.410;11.030;2022-10-17T10:05:39;98859.31;;;19.07;100.00
68226;BME280;55045;49.410;11.030;2022-10-17T10:08:52;98855.31;;;19.14;100.00
68226;BME280;55045;49.410;11.030;2022-10-17T10:11:57;98840.09;;;19.31;100.00
68226;BME280;55045;49.410;11.030;2022-10-17T10:15:01;98844.06;;;19.12;100.00
68226;BME280;55045;49.410;11.030;2022-10-17T10:18:31;98847.25;;;19.28;100.00
68226;BME280;55045;49.410;11.030;2022-10-17T10:21:54;98853.69;;;19.48;100.00
68226;BME280;55045;49.410;11.030;2022-10-17T10:25:12;98852.47;;;19.41;100.00
68226;BME280;55045;49.410;11.030;2022-10-17T10:28:17;98844.97;;;19.72;100.00
68226;BME280;55045;49.410;11.030;2022-10-17T10:31:32;98842.91;;;19.88;100.00
68226;BME280;55045;49.410;11.030;2022-10-17T10:34:37;98835.16;;;19.98;100.00
68226;BME280;55045;49.410;11.030;2022-10-17T10:37:48;98838.28;;;20.03;100.00
68226;BME280;55045;49.410;11.030;2022-10-17T10:40:54;98819.72;;;19.93;100.00
68226;BME280;55045;49.410;11.030;2022-10-17T10:43:58;98837.78;;;20.44;100.00
68226;BME280;55045;49.410;11.030;2022-10-17T10:47:06;98815.34;;;20.38;100.00
68226;BME280;55045;49.410;11.030;2022-10-17T10:50:23;98801.78;;;20.09;100.00
68226;BME280;55045;49.410;11.030;2022-10-17T10:53:42;98826.59;;;20.40;100.00
68226;BME280;55045;49.410;11.030;2022-10-17T10:56:49;98828.22;;;20.65;100.00
68226;BME280;55045;49.410;11.030;2022-10-17T10:59:59;98818.97;;;20.49;100.00
68226;BME280;55045;49.410;11.030;2022-10-17T11:03:16;98808.50;;;20.13;100.00
68226;BME280;55045;49.410;11.030;2022-10-17T11:06:25;98825.50;;;20.21;100.00
68226;BME280;55045;49.410;11.030;2022-10-17T11:09:43;98821.63;;;20.60;100.00
68226;BME280;55045;49.410;11.030;2022-10-17T11:12:49;98797.19;;;20.47;100.00
68226;BME280;55045;49.410;11.030;2022-10-17T11:15:58;98816.22;;;20.73;100.00
68226;BME280;55045;49.410;11.030;2022-10-17T11:19:08;98811.97;;;21.26;100.00
68226;BME280;55045;49.410;11.030;2022-10-17T11:22:17;98800.94;;;21.10;100.00
68226;BME280;55045;49.410;11.030;2022-10-17T11:25:32;98816.28;;;21.16;100.00
68226;BME280;55045;49.410;11.030;2022-10-17T11:28:36;98797.13;;;21.03;100.00
68226;BME280;55045;49.410;11.030;2022-10-17T11:31:42;98805.34;;;21.20;100.00
68226;BME280;55045;49.410;11.030;2022-10-17T11:34:48;98811.19;;;20.69;100.00
68226;BME280;55045;49.410;11.030;2022-10-17T11:37:59;98791.63;;;21.06;100.00
68226;BME280;55045;49.410;11.030;2022-10-17T11:41:11;98806.59;;;21.05;100.00
68226;BME280;55045;49.410;11.030;2022-10-17T11:44:20;98806.66;;;21.37;100.00
68226;BME280;55045;49.410;11.030;2022-10-17T11:47:33;98805.75;;;21.16;100.00
68226;BME280;55045;49.410;11.030;2022-10-17T11:50:41;98808.16;;;21.08;100.00
68226;BME280;55045;49.410;11.030;2022-10-17T11:54:11;98800.50;;;21.48;100.00
68226;BME280;55045;49.410;11.030;2022-10-17T11:57:31;98790.03;;;21.03;100.00
68226;BME280;55045;49.410;11.030;2022-10-17T12:00:50;98802.47;;;21.35;100.00
68226;BME280;55045;49.410;11.030;2022-10-17T12:04:03;98809.53;;;21.23;100.00
68226;BME280;55045;49.410;11.030;2022-10-17T12:07:14;98808.47;;;21.14;100.00
68226;BME280;55045;49.410;11.030;2022-10-17T12:10:30;98792.91;;;21.54;100.00
68226;BME280;55045;49.410;11.030;2022-10-17T12:13:49;98803.84;;;21.07;100.00
68226;BME280;55045;49.410;11.030;2022-10-17T12:16:52;98801.63;;;21.23;100.00
68226;BME280;55045;49.410;11.030;2022-10-17T12:23:50;98802.53;;;21.44;100.00
68226;BME280;55045;49.410;11.030;2022-10-17T12:26:53;98799.19;;;21.42;100.00
68226;BME280;55045;49.410;11.030;2022-10-17T12:30:02;98802.59;;;21.22;100.00
68226;BME280;55045;49.410;11.030;2022-10-17T12:33:17;98797.31;;;21.33;100.00
68226;BME280;55045;49.410;11.030;2022-10-17T12:36:44;98794.75;;;21.43;100.00
68226;BME280;55045;49.410;11.030;2022-10-17T12:39:50;98771.41;;;21.38;100.00
68226;BME280;55045;49.410;11.030;2022-10-17T12:42:54;98792.28;;;21.30;100.00
68226;BME280;55045;49.410;11.030;2022-10-17T12:45:59;98783.38;;;21.42;100.00
68226;BME280;55045;49.410;11.030;2022-10-17T12:49:03;98773.13;;;21.81;100.00
68226;BME280;55045;49.410;11.030;2022-10-17T12:55:47;98777.22;;;21.74;100.00
68226;BME280;55045;49.410;11.030;2022-10-17T12:58:52;98764.84;;;21.95;100.00
68226;BME280;55045;49.410;11.030;2022-10-17T13:01:58;98771.38;;;22.12;100.00
68226;BME280;55045;49.410;11.030;2022-10-17T13:05:07;98760.47;;;21.64;100.00
68226;BME280;55045;49.410;11.030;2022-10-17T13:08:16;98761.91;;;21.89;100.00
68226;BME280;55045;49.410;11.030;2022-10-17T13:11:22;98759.78;;;21.82;100.00
68226;BME280;55045;49.410;11.030;2022-10-17T13:14:27;98756.88;;;21.65;100.00
68226;BME280;55045;49.410;11.030;2022-10-17T13:17:33;98760.25;;;21.67;100.00
68226;BME280;55045;49.410;11.030;2022-10-17T13:20:41;98755.53;;;22.12;100.00
68226;BME280;55045;49.410;11.030;2022-10-17T13:23:44;98762.47;;;21.71;100.00
68226;BME280;55045;49.410;11.030;2022-10-17T13:26:50;98759.56;;;21.53;100.00
68226;BME280;55045;49.410;11.030;2022-10-17T13:29:53;98763.16;;;21.52;100.00
68226;BME280;55045;49.410;11.030;2022-10-17T13:33:00;98775.03;;;21.58;100.00
68226;BME280;55045;49.410;11.030;2022-10-17T13:36:07;98781.81;;;21.93;100.00
68226;BME280;55045;49.410;11.030;2022-10-17T13:39:24;98773.38;;;21.78;100.00
68226;BME280;55045;49.410;11.030;2022-10-17T13:42:54;98787.84;;;21.63;100.00
68226;BME280;55045;49.410;11.030;2022-10-17T13:46:00;98792.34;;;21.51;100.00
68226;BME280;55045;49.410;11.030;2022-10-17T13:49:38;98759.66;;;21.31;100.00
68226;BME280;55045;49.410;11.030;2022-10-17T13:52:50;98755.66;;;21.69;100.00
68226;BME280;55045;49.410;11.030;2022-10-17T13:56:17;98785.00;;;21.75;100.00
68226;BME280;55045;49.410;11.030;2022-10-17T13:59:36;98788.09;;;21.60;100.00
68226;BME280;55045;49.410;11.030;2022-10-17T14:02:43;98785.28;;;21.72;100.00
68226;BME280;55045;49.410;11.030;2022-10-17T14:06:06;98786.94;;;21.73;100.00
68226;BME280;55045;49.410;11.030;2022-10-17T14:09:19;98796.41;;;21.76;100.00
68226;BME280;55045;49.410;11.030;2022-10-17T14:12:25;98800.16;;;21.73;100.00
68226;BME280;55045;49.410;11.030;2022-10-17T14:15:33;98804.06;;;21.58;100.00
68226;BME280;55045;49.410;11.030;2022-10-17T14:18:38;98788.53;;;21.65;100.00
68226;BME280;55045;49.410;11.030;2022-10-17T14:21:51;98800.00;;;21.75;100.00
68226;BME280;55045;49.410;11.030;2022-10-17T14:24:55;98803.41;;;21.66;100.00
68226;BME280;55045;49.410;11.030;2022-10-17T14:28:13;98810.50;;;21.65;100.00
68226;BME280;55045;49.410;11.030;2022-10-17T14:31:30;98814.59;;;21.37;100.00
68226;BME280;55045;49.410;11.030;2022-10-17T14:34:40;98811.47;;;21.32;100.00
68226;BME280;55045;49.410;11.030;2022-10-17T14:37:50;98804.03;;;21.15;100.00
68226;BME280;55045;49.410;11.030;2022-10-17T14:40:56;98820.34;;;21.31;100.00
68226;BME280;55045;49.410;11.030;2022-10-17T14:44:23;98826.03;;;21.59;100.00
68226;BME280;55045;49.410;11.030;2022-10-17T14:47:27;98808.56;;;21.24;100.00
68226;BME280;55045;49.410;11.030;2022-10-17T14:51:08;98824.41;;;21.46;100.00
68226;BME280;55045;49.410;11.030;2022-10-17T14:54:21;98830.84;;;20.77;100.00
68226;BME280;55045;49.410;11.030;2022-10-17T14:57:40;98831.31;;;20.82;100.00
68226;BME280;55045;49.410;11.030;2022-10-17T15:00:44;98833.81;;;20.72;100.00
68226;BME280;55045;49.410;11.030;2022-10-17T15:03:47;98827.84;;;20.59;100.00
68226;BME280;55045;49.410;11.030;2022-10-17T15:06:52;98835.28;;;20.65;100.00
68226;BME280;55045;49.410;11.030;2022-10-17T15:09:57;98828.56;;;20.50;100.00
68226;BME280;55045;49.410;11.030;2022-10-17T15:13:02;98836.25;;;20.64;100.00
68226;BME280;55045;49.410;11.030;2022-10-17T15:16:30;98830.56;;;20.24;100.00
68226;BME280;55045;49.410;11.030;2022-10-17T15:19:33;98846.59;;;20.32;100.00
68226;BME280;55045;49.410;11.030;2022-10-17T15:22:36;98838.63;;;20.67;100.00
68226;BME280;55045;49.410;11.030;2022-10-17T15:25:41;98847.66;;;20.18;100.00
68226;BME280;55045;49.410;11.030;2022-10-17T15:28:44;98846.94;;;20.27;100.00
68226;BME280;55045;49.410;11.030;2022-10-17T15:34:26;98839.97;;;20.04;100.00
68226;BME280;55045;49.410;11.030;2022-10-17T15:37:32;98849.00;;;20.24;100.00
68226;BME280;55045;49.410;11.030;2022-10-17T15:40:35;98844.44;;;19.91;100.00
68226;BME280;55045;49.410;11.030;2022-10-17T15:43:39;98840.66;;;19.95;100.00
68226;BME280;55045;49.410;11.030;2022-10-17T15:46:42;98851.22;;;19.82;100.00
68226;BME280;55045;49.410;11.030;2022-10-17T15:49:48;98848.41;;;19.85;100.00
68226;BME280;55045;49.410;11.030;2022-10-17T15:52:51;98831.13;;;19.81;100.00
68226;BME280;55045;49.410;11.030;2022-10-17T15:55:54;98859.69;;;19.26;100.00
68226;BME280;55045;49.410;11.030;2022-10-17T15:58:57;98841.25;;;18.90;100.00
68226;BME280;55045;49.410;11.030;2022-10-17T16:02:00;98877.84;;;18.93;100.00
68226;BME280;55045;49.410;11.030;2022-10-17T16:05:10;98881.16;;;18.71;100.00
68226;BME280;55045;49.410;11.030;2022-10-17T16:08:15;98875.84;;;18.33;100.00
68226;BME280;55045;49.410;11.030;2022-10-17T16:11:25;98891.31;;;18.50;100.00
68226;BME280;55045;49.410;11.030;2022-10-17T16:14:30;98895.69;;;18.37;100.00
68226;BME280;55045;49.410;11.030;2022-10-17T16:17:33;98904.50;;;18.10;100.00
68226;BME280;55045;49.410;11.030;2022-10-17T16:20:38;98915.41;;;18.04;100.00
68226;BME280;55045;49.410;11.030;2022-10-17T16:23:41;98919.75;;;17.78;100.00
68226;BME280;55045;49.410;11.030;2022-10-17T16:26:45;98931.66;;;17.70;100.00
68226;BME280;55045;49.410;11.030;2022-10-17T16:29:48;98926.69;;;17.92;100.00
68226;BME280;55045;49.410;11.030;2022-10-17T16:32:51;98936.25;;;17.52;100.00
68226;BME280;55045;49.410;11.030;2022-10-17T16:35:56;98922.00;;;17.29;100.00
68226;BME280;55045;49.410;11.030;2022-10-17T16:39:00;98953.16;;;17.34;100.00